Time;durP1;ratioP1;P1;durP2;ratioP2;P2;SDS_P1;SDS_P2;PMS_P1;PMS_P2;Temp;Humidity;BMP_temperature;BMP_pressure;BME280_temperature;BME280_humidity;BME280_pressure;Samples;Min_cycle;Max_cycle;Signal;HPM_P1;HPM_P2
2021/07/28 00:03:55;;;;;;;14.57;8.68;;;18.80;99.90;;;17.74;100.00;102205.81;5005278;28;20034;-75
2021/07/28 00:06:22;;;;;;;16.67;8.18;;;18.50;99.90;;;17.46;100.00;102224.19;4954034;28;20027;-74
2021/07/28 00:08:50;;;;;;;14.00;8.63;;;18.40;99.90;;;17.49;100.00;102232.00;4994196;28;20034;-74
2021/07/28 00:11:18;;;;;;;13.30;7.68;;;18.40;99.90;;;17.47;100.00;102244.53;4953651;28;20482;-74
2021/07/28 00:13:46;;;;;;;10.10;6.32;;;18.50;99.90;;;17.58;100.00;102219.09;4971898;28;20034;-74
2021/07/28 00:16:16;;;;;;;10.90;6.55;;;18.50;99.90;;;17.68;100.00;102194.63;4969445;28;20034;-75
2021/07/28 00:24:03;;;;;;;14.60;2.85;;;18.40;99.90;;;17.28;98.28;102076.91;4970957;28;19964;-73
2021/07/28 00:26:30;;;;;;;18.13;3.10;;;18.20;99.90;;;16.91;100.00;102025.63;4969749;28;20027;-73
2021/07/28 00:28:56;;;;;;;5.60;2.97;;;18.00;99.90;;;16.79;100.00;102013.81;4970584;28;20026;-74
2021/07/28 00:31:22;;;;;;;18.25;3.13;;;17.80;99.90;;;16.66;100.00;102012.75;4970671;28;20030;-74
2021/07/28 00:33:48;;;;;;;8.23;2.67;;;17.80;99.90;;;16.68;100.00;102054.28;4980169;28;20045;-74
2021/07/28 00:36:14;;;;;;;4.63;2.88;;;17.70;99.90;;;16.50;100.00;102032.16;4987512;28;22007;-74
2021/07/28 00:38:40;;;;;;;9.15;3.00;;;17.60;99.90;;;16.41;100.00;102008.66;4940380;28;20430;-73
2021/07/28 00:41:06;;;;;;;6.55;2.95;;;17.50;99.90;;;16.39;100.00;102007.88;4982790;28;20046;-74
2021/07/28 00:43:32;;;;;;;4.85;3.10;;;17.50;99.90;;;16.45;100.00;102010.22;4934348;28;20023;-73
2021/07/28 00:45:58;;;;;;;8.27;3.08;;;17.60;99.90;;;16.45;100.00;102035.97;4952785;28;20041;-74
2021/07/28 00:48:24;;;;;;;7.32;2.60;;;17.50;99.90;;;16.43;100.00;102126.41;4932676;28;20027;-73
2021/07/28 00:50:50;;;;;;;9.95;3.00;;;17.40;99.90;;;16.38;100.00;102043.38;4936438;28;20097;-73
2021/07/28 00:53:20;;;;;;;8.25;2.78;;;17.40;99.90;;;16.33;100.00;102011.72;4952027;28;20151;-73
2021/07/28 00:55:49;;;;;;;11.60;2.85;;;17.40;99.90;;;16.18;100.00;101989.44;4950188;28;20085;-74
2021/07/28 00:58:19;;;;;;;5.35;3.13;;;17.30;99.90;;;16.14;100.00;102162.38;4951515;28;20462;-73
2021/07/28 01:00:47;;;;;;;11.77;3.25;;;17.20;99.90;;;16.07;100.00;102108.69;4959724;28;20049;-74
2021/07/28 01:03:14;;;;;;;4.20;2.45;;;17.20;99.90;;;16.03;100.00;102140.78;4952226;28;20459;-74
2021/07/28 01:05:41;;;;;;;5.88;2.58;;;17.10;99.90;;;15.99;100.00;102177.25;4950553;28;20035;-74
2021/07/28 01:08:08;;;;;;;8.77;2.80;;;17.10;99.90;;;15.95;100.00;102088.00;4954880;28;20070;-74
2021/07/28 01:10:36;;;;;;;6.53;2.97;;;17.00;99.90;;;15.80;100.00;102031.16;4969460;28;20029;-74
2021/07/28 01:13:04;;;;;;;7.80;3.20;;;16.90;99.90;;;15.67;100.00;102038.81;4954546;28;20106;-73
2021/07/28 01:15:40;;;;;;;10.05;3.33;;;16.90;99.90;;;15.78;100.00;102028.56;4939422;28;20443;-73
2021/07/28 01:18:13;;;;;;;19.50;3.92;;;16.90;99.90;;;15.83;100.00;102019.50;4953585;28;20023;-73
2021/07/28 01:20:45;;;;;;;7.22;3.85;;;17.00;99.90;;;15.95;100.00;102018.94;4969824;28;20039;-74
2021/07/28 01:23:30;;;;;;;9.15;4.82;;;17.00;99.90;;;16.04;100.00;102066.28;4971989;28;20019;-74
2021/07/28 01:26:01;;;;;;;8.88;5.35;;;17.10;99.90;;;16.04;100.00;102055.66;4987757;28;20027;-74
2021/07/28 01:28:29;;;;;;;10.90;5.60;;;17.10;99.90;;;16.04;100.00;102053.00;5005269;28;20546;-74
2021/07/28 01:31:09;;;;;;;10.55;3.70;;;17.10;99.90;;;15.84;100.00;102027.41;4971636;28;20390;-74
2021/07/28 01:33:44;;;;;;;9.68;3.30;;;17.00;99.90;;;15.75;100.00;102015.44;4956280;28;20030;-74
2021/07/28 01:36:17;;;;;;;10.20;3.75;;;16.90;99.90;;;15.63;100.00;102017.78;4972948;28;20049;-73
2021/07/28 01:38:44;;;;;;;5.10;3.15;;;16.70;99.90;;;15.37;100.00;102012.75;5004146;28;20019;-74
2021/07/28 01:41:10;;;;;;;5.85;2.95;;;16.60;99.90;;;15.38;100.00;102040.19;4962475;28;20049;-74
2021/07/28 01:43:37;;;;;;;6.45;3.40;;;16.60;99.90;;;15.39;100.00;102032.13;4972134;28;20026;-73
2021/07/28 01:46:05;;;;;;;4.15;2.95;;;16.50;99.90;;;15.34;100.00;102004.09;4989994;28;20026;-73
2021/07/28 01:48:32;;;;;;;5.22;3.63;;;16.50;99.90;;;15.34;100.00;102004.09;4954832;28;20495;-73
2021/07/28 01:50:59;;;;;;;5.60;4.05;;;16.50;99.90;;;15.36;100.00;102011.03;4990310;28;20026;-73
2021/07/28 01:53:28;;;;;;;8.90;4.05;;;16.50;99.90;;;15.31;100.00;102009.53;4970837;28;20126;-74
2021/07/28 01:55:57;;;;;;;12.63;4.30;;;16.50;99.90;;;15.27;100.00;102007.94;4972791;28;20070;-74
2021/07/28 01:58:23;;;;;;;7.32;4.30;;;16.40;99.90;;;15.28;100.00;101993.75;4972227;28;20117;-73
2021/07/28 02:00:50;;;;;;;10.50;6.90;;;16.40;99.90;;;15.25;100.00;102086.75;4988390;28;20038;-74
2021/07/28 02:03:16;;;;;;;9.70;5.82;;;16.40;99.90;;;15.28;100.00;102115.81;4990197;28;20018;-73
2021/07/28 02:05:43;;;;;;;8.93;5.78;;;16.40;99.90;;;15.29;100.00;102176.78;4955165;28;20113;-74
2021/07/28 02:08:14;;;;;;;11.35;6.85;;;16.50;99.90;;;15.37;100.00;102222.41;4989407;28;20034;-73
2021/07/28 02:10:46;;;;;;;9.50;5.18;;;16.50;99.90;;;15.20;100.00;102219.63;4963687;28;20115;-74
2021/07/28 02:13:18;;;;;;;11.88;4.20;;;16.30;99.90;;;15.04;100.00;104214.69;4969857;28;20086;-73
2021/07/28 02:15:46;;;;;;;11.02;6.40;;;16.20;99.90;;;15.03;100.00;107684.81;4968363;28;20031;-73
2021/07/28 02:18:13;;;;;;;10.02;5.70;;;16.30;99.90;;;15.12;100.00;104918.06;4951393;28;20054;-73
2021/07/28 02:20:39;;;;;;;13.30;7.10;;;16.30;99.90;;;15.18;100.00;103882.75;4937377;28;20548;-73
2021/07/28 02:23:06;;;;;;;12.10;7.55;;;16.40;99.90;;;15.28;100.00;103852.50;4952594;28;20398;-74
2021/07/28 02:25:33;;;;;;;17.90;6.43;;;16.50;99.90;;;15.33;100.00;103529.44;4953018;28;20038;-73
2021/07/28 02:27:59;;;;;;;6.22;4.53;;;16.40;99.90;;;15.00;100.00;103453.19;4967087;28;20081;-74
2021/07/28 02:30:25;;;;;;;7.40;4.30;;;16.10;99.90;;;14.82;100.00;103367.81;4953258;28;20498;-74
2021/07/28 02:32:53;;;;;;;11.63;5.95;;;16.00;99.90;;;14.88;100.00;103423.38;4935970;28;20165;-74
2021/07/28 02:35:19;;;;;;;12.93;8.35;;;16.00;99.90;;;14.87;100.00;103259.78;4953908;28;20023;-74
2021/07/28 02:37:46;;;;;;;19.75;9.32;;;16.10;99.90;;;14.96;100.00;103137.53;4953722;28;20019;-74
2021/07/28 02:40:16;;;;;;;20.85;9.88;;;16.20;99.90;;;15.07;100.00;103153.16;4934431;28;20057;-73
2021/07/28 02:42:42;;;;;;;16.38;10.55;;;16.20;99.90;;;15.11;100.00;103067.25;4937402;28;20084;-73
2021/07/28 02:45:10;;;;;;;18.00;9.82;;;16.30;99.90;;;15.16;100.00;103040.59;4950266;28;20061;-73
2021/07/28 02:47:37;;;;;;;19.88;10.20;;;16.30;99.90;;;15.20;100.00;103068.78;4951790;28;20062;-73
2021/07/28 02:50:05;;;;;;;17.52;10.65;;;16.40;99.90;;;15.25;100.00;102981.06;4953436;28;20528;-74
2021/07/28 02:52:31;;;;;;;18.13;10.68;;;16.40;99.90;;;15.33;100.00;102969.31;4991690;28;20038;-74
2021/07/28 02:55:04;;;;;;;20.33;10.23;;;16.50;99.90;;;15.34;100.00;102915.28;4982310;28;20065;-73
2021/07/28 02:57:31;;;;;;;17.90;10.90;;;16.50;99.90;;;15.37;100.00;102885.97;4951827;28;20383;-73
2021/07/28 02:59:57;;;;;;;16.83;10.85;;;16.50;99.90;;;15.34;100.00;102895.84;4968073;28;20035;-73
2021/07/28 03:02:23;;;;;;;17.27;9.85;;;16.40;99.90;;;15.22;100.00;102894.44;4987060;28;20046;-73
2021/07/28 03:04:49;;;;;;;15.15;9.20;;;16.20;99.90;;;15.06;100.00;102749.94;5005417;28;20709;-74
2021/07/28 03:07:15;;;;;;;14.13;8.60;;;16.20;99.90;;;15.06;100.00;102810.97;4987506;28;20022;-74
2021/07/28 03:09:41;;;;;;;16.25;8.23;;;16.10;99.90;;;15.02;100.00;102748.31;4971953;28;20041;-74
2021/07/28 03:12:08;;;;;;;14.35;8.98;;;16.10;99.90;;;14.97;100.00;102685.66;4971451;28;20196;-74
2021/07/28 03:14:34;;;;;;;12.93;8.90;;;16.10;99.90;;;14.96;100.00;103161.41;4970723;28;20467;-74
2021/07/28 03:17:00;;;;;;;14.05;9.27;;;16.10;99.90;;;14.92;100.00;103037.75;4971507;28;20033;-74
2021/07/28 03:19:26;;;;;;;13.25;8.90;;;16.00;99.90;;;14.86;100.00;102979.56;5003746;28;20878;-74
2021/07/28 03:21:52;;;;;;;22.45;9.48;;;15.90;99.90;;;14.79;100.00;102898.41;4961492;28;20391;-73
2021/07/28 03:24:19;;;;;;;23.23;8.93;;;15.90;99.90;;;14.78;100.00;102899.34;4963131;28;20061;-74
2021/07/28 03:26:46;;;;;;;15.27;9.27;;;15.90;99.90;;;14.82;100.00;103040.69;5004169;28;20097;-73
2021/07/28 03:29:13;;;;;;;19.05;9.27;;;16.00;99.90;;;14.90;100.00;102832.66;4971010;28;20155;-74
2021/07/28 03:31:39;;;;;;;17.50;9.75;;;16.10;99.90;;;14.98;100.00;102870.41;5001593;28;20034;-73
2021/07/28 03:34:05;;;;;;;15.40;9.88;;;16.10;99.90;;;14.97;100.00;102862.53;4971894;28;20026;-74
2021/07/28 03:36:31;;;;;;;16.63;9.70;;;16.10;99.90;;;14.98;100.00;102819.16;4970162;28;20117;-74
2021/07/28 03:38:57;;;;;;;17.90;9.88;;;16.10;99.90;;;14.98;100.00;102939.38;4971567;28;20054;-73
2021/07/28 03:41:23;;;;;;;31.20;9.80;;;16.10;99.90;;;15.00;100.00;102923.44;4977953;28;20073;-74
2021/07/28 03:43:49;;;;;;;22.90;10.45;;;16.10;99.90;;;15.02;100.00;102902.16;5004324;28;20026;-73
2021/07/28 03:46:15;;;;;;;25.65;9.85;;;16.20;99.90;;;15.04;100.00;102903.00;4987670;28;20077;-73
2021/07/28 03:48:41;;;;;;;19.73;10.30;;;16.20;99.90;;;15.12;100.00;102976.13;4968955;28;20464;-74
2021/07/28 03:51:07;;;;;;;16.60;9.35;;;16.30;99.90;;;15.17;100.00;102999.88;4987616;28;20022;-73
2021/07/28 03:53:35;;;;;;;17.63;9.48;;;16.40;99.90;;;15.23;100.00;103054.56;4970395;28;20455;-74
2021/07/28 03:56:01;;;;;;;27.20;9.95;;;16.40;99.90;;;15.26;100.00;103059.78;4963494;28;20056;-74
2021/07/28 03:58:27;;;;;;;22.67;9.02;;;16.50;99.90;;;15.36;100.00;102979.81;4970555;28;20034;-74
2021/07/28 04:00:53;;;;;;;17.67;9.88;;;16.60;99.90;;;15.49;100.00;103096.28;4969595;28;21978;-74
2021/07/28 04:03:19;;;;;;;22.38;10.07;;;16.70;99.90;;;15.63;100.00;103094.06;4970509;28;20018;-74
2021/07/28 04:05:45;;;;;;;22.05;10.25;;;16.80;99.90;;;15.73;100.00;103146.03;4986321;28;20494;-74
2021/07/28 04:08:11;;;;;;;19.83;9.70;;;16.90;99.90;;;15.83;100.00;103076.66;5004287;28;20088;-73
2021/07/28 04:10:37;;;;;;;17.83;10.15;;;17.10;99.90;;;16.23;100.00;103094.00;4986019;28;20092;-74
2021/07/28 04:13:04;;;;;;;18.73;8.50;;;17.70;99.90;;;16.59;100.00;103083.91;4987405;28;20023;-74
2021/07/28 04:15:30;;;;;;;20.73;8.52;;;18.30;99.90;;;17.39;100.00;103118.34;4988030;28;20042;-74
2021/07/28 04:17:56;;;;;;;10.90;6.85;;;19.40;99.90;;;18.29;100.00;103305.09;4952347;28;20042;-74
2021/07/28 04:20:22;;;;;;;15.95;6.43;;;20.40;99.90;;;18.85;98.49;105478.09;4988098;28;20269;-74
2021/07/28 04:22:48;;;;;;;13.57;6.25;;;20.40;99.90;;;18.91;92.18;104073.34;4985659;28;20043;-75
2021/07/28 04:25:14;;;;;;;18.60;6.53;;;20.00;99.90;;;18.61;93.80;103834.84;4974061;28;20038;-74
2021/07/28 04:27:40;;;;;;;9.95;6.30;;;19.70;99.90;;;18.52;94.09;103648.38;4969302;28;20118;-74
2021/07/28 04:30:07;;;;;;;12.82;6.50;;;19.80;99.90;;;18.88;93.25;103630.25;5009496;28;20479;-74
2021/07/28 04:32:34;;;;;;;17.13;7.20;;;20.10;99.90;;;19.20;90.76;103487.50;4963258;28;20125;-74
2021/07/28 04:35:00;;;;;;;11.40;6.00;;;20.50;99.90;;;19.26;88.76;103363.50;4970776;28;20059;-73
2021/07/28 04:37:26;;;;;;;17.17;5.90;;;20.10;99.90;;;18.92;91.50;103215.41;4969556;28;20042;-74
2021/07/28 04:39:52;;;;;;;16.63;6.20;;;19.80;99.90;;;18.69;92.33;103160.28;4975719;28;20093;-75
2021/07/28 04:42:18;;;;;;;13.30;6.50;;;19.40;99.90;;;18.16;95.69;103068.25;4986046;28;20069;-74
2021/07/28 04:44:47;;;;;;;20.23;7.03;;;18.90;99.90;;;17.80;100.00;103398.38;4973592;28;20030;-74
2021/07/28 04:47:13;;;;;;;18.50;7.07;;;18.70;99.90;;;17.51;100.00;103167.63;4974469;28;20457;-74
2021/07/28 04:49:39;;;;;;;21.98;7.45;;;18.40;99.90;;;17.22;100.00;102970.72;4989237;28;20033;-74
2021/07/28 04:52:07;;;;;;;11.48;8.07;;;18.20;99.90;;;17.14;100.00;102959.50;4989414;28;20029;-74
2021/07/28 04:54:33;;;;;;;21.67;8.73;;;18.10;99.90;;;17.04;100.00;102928.88;4972578;28;20038;-74
2021/07/28 04:56:59;;;;;;;14.38;8.80;;;18.00;99.90;;;17.07;100.00;102906.59;4973610;28;20047;-74
2021/07/28 04:59:25;;;;;;;19.67;8.77;;;18.10;99.90;;;17.13;100.00;102901.03;4958128;28;20126;-74
2021/07/28 05:01:51;;;;;;;23.90;9.18;;;18.10;99.90;;;17.17;100.00;102866.25;4973451;28;20479;-74
2021/07/28 05:04:17;;;;;;;21.33;9.57;;;18.20;99.90;;;17.21;100.00;102857.19;4991021;28;20023;-72
2021/07/28 05:06:43;;;;;;;24.55;9.68;;;18.20;99.90;;;17.27;100.00;102877.38;5004150;28;20030;-73
2021/07/28 05:09:09;;;;;;;16.58;9.18;;;18.30;99.90;;;17.36;100.00;102866.31;5005959;28;20105;-74
2021/07/28 05:11:35;;;;;;;24.80;9.85;;;18.30;99.90;;;17.41;100.00;102860.84;4964172;28;20041;-73
2021/07/28 05:14:01;;;;;;;21.60;9.50;;;18.30;99.90;;;17.46;100.00;102844.66;4956236;28;20441;-74
2021/07/28 05:16:27;;;;;;;16.00;9.73;;;18.40;99.90;;;17.53;100.00;102838.13;4973804;28;20093;-74
2021/07/28 05:18:53;;;;;;;16.45;9.43;;;18.50;99.90;;;17.65;100.00;102911.34;4956827;28;20018;-74
2021/07/28 05:21:19;;;;;;;16.52;10.13;;;18.70;99.90;;;18.15;100.00;102914.53;4989884;28;20046;-74
2021/07/28 05:23:45;;;;;;;17.67;9.18;;;19.10;99.90;;;18.26;99.84;102889.19;4986872;28;20015;-74
2021/07/28 05:26:13;;;;;;;16.88;9.05;;;19.10;99.90;;;18.22;99.49;102868.00;4953191;28;20039;-74
2021/07/28 05:28:39;;;;;;;21.25;9.57;;;19.10;99.90;;;18.16;100.00;102857.63;4983573;28;20030;-74
2021/07/28 05:31:05;;;;;;;12.68;8.20;;;19.10;99.90;;;18.21;99.17;102844.09;4928453;28;20031;-74
2021/07/28 05:33:31;;;;;;;18.38;8.98;;;19.00;99.90;;;18.06;100.00;102842.97;4965198;28;20018;-74
2021/07/28 05:35:57;;;;;;;23.17;10.00;;;18.90;99.90;;;18.03;100.00;102843.97;4961618;28;20399;-74
2021/07/28 05:38:23;;;;;;;18.73;8.93;;;18.90;99.90;;;18.01;100.00;102808.53;4969892;28;20027;-74
2021/07/28 05:40:49;;;;;;;17.15;9.57;;;18.90;99.90;;;18.02;100.00;102793.41;4943647;28;20031;-74
2021/07/28 05:43:15;;;;;;;15.82;9.68;;;18.90;99.90;;;18.00;100.00;102787.25;4954276;28;20022;-74
2021/07/28 05:45:41;;;;;;;20.00;9.50;;;18.90;99.90;;;17.97;100.00;102758.97;4952849;28;20415;-75
2021/07/28 05:48:07;;;;;;;19.50;8.85;;;18.90;99.90;;;18.04;100.00;102772.88;4954025;28;20118;-74
2021/07/28 05:50:33;;;;;;;22.75;9.20;;;19.00;99.90;;;18.11;100.00;102744.97;4954829;28;20054;-74
2021/07/28 05:52:59;;;;;;;16.60;9.43;;;19.00;99.90;;;18.22;100.00;102757.81;4983059;28;20027;-74
2021/07/28 05:55:25;;;;;;;25.25;10.80;;;19.10;99.90;;;18.25;100.00;102755.03;4954149;28;20493;-74
2021/07/28 05:57:53;;;;;;;20.20;10.48;;;19.20;99.90;;;18.33;100.00;102754.63;4953932;28;20038;-73
2021/07/28 06:00:19;;;;;;;13.27;9.20;;;19.20;99.90;;;18.34;100.00;102732.38;4988709;28;20038;-74
2021/07/28 06:02:45;;;;;;;18.20;9.35;;;19.30;99.90;;;18.45;100.00;102744.25;4995629;28;20038;-74
2021/07/28 06:05:12;;;;;;;14.07;9.25;;;19.40;99.90;;;18.56;100.00;102756.22;4999260;28;20040;-73
2021/07/28 06:07:38;;;;;;;14.07;9.60;;;19.50;99.90;;;18.68;99.29;102754.75;4954022;28;20023;-74
2021/07/28 06:10:06;;;;;;;15.98;9.98;;;19.50;99.90;;;18.75;98.87;102756.19;4955320;28;20051;-74
2021/07/28 06:12:33;;;;;;;17.73;9.27;;;19.60;99.90;;;18.79;98.13;102779.13;4953437;28;20041;-74
2021/07/28 06:14:59;;;;;;;16.92;8.93;;;19.70;99.90;;;18.96;97.29;102797.88;4971741;28;20391;-74
2021/07/28 06:17:25;;;;;;;20.92;9.10;;;19.80;99.90;;;18.92;96.60;102785.63;4985845;28;20502;-74
2021/07/28 06:19:51;;;;;;;19.10;9.25;;;19.80;99.90;;;18.96;96.99;102795.22;4969857;28;20054;-74
2021/07/28 06:22:17;;;;;;;18.95;9.20;;;19.80;99.90;;;19.04;96.54;102798.34;4986010;28;20046;-74
2021/07/28 06:24:43;;;;;;;17.02;9.20;;;19.80;99.90;;;18.98;96.37;102779.94;4985408;28;20022;-74
2021/07/28 06:27:10;;;;;;;20.50;9.75;;;19.80;99.90;;;18.92;97.35;102756.25;4973048;28;20109;-74
2021/07/28 06:29:37;;;;;;;17.23;10.25;;;19.80;99.90;;;18.98;97.57;102757.75;4955296;28;20037;-74
2021/07/28 06:32:03;;;;;;;15.23;9.45;;;19.80;99.90;;;19.01;97.02;102690.88;4994725;28;20065;-74
2021/07/28 06:34:29;;;;;;;17.52;9.65;;;19.80;99.90;;;18.99;96.05;102682.06;4980558;28;20030;-74
2021/07/28 06:36:55;;;;;;;21.30;10.18;;;19.70;99.90;;;18.87;95.98;102648.84;4955268;28;20024;-74
2021/07/28 06:39:21;;;;;;;15.60;9.38;;;19.70;99.90;;;18.96;95.86;102709.78;4988015;28;20034;-74
2021/07/28 06:41:47;;;;;;;16.58;9.95;;;19.70;99.90;;;18.84;96.41;102643.69;4971425;28;20085;-74
2021/07/28 06:44:14;;;;;;;15.70;9.63;;;19.70;99.90;;;18.91;95.97;102642.41;4971032;28;20026;-74
2021/07/28 06:46:40;;;;;;;16.25;9.80;;;19.80;99.90;;;19.05;94.66;102661.25;4985331;28;20605;-75
2021/07/28 06:49:06;;;;;;;16.63;8.63;;;19.90;99.90;;;19.19;94.72;102651.66;4972083;28;20477;-74
2021/07/28 06:51:33;;;;;;;15.95;9.93;;;20.00;99.90;;;19.24;94.40;102652.28;4971915;28;20040;-74
2021/07/28 06:53:59;;;;;;;20.38;10.02;;;20.10;99.90;;;19.39;92.10;102655.94;4953343;28;20026;-74
2021/07/28 06:56:25;;;;;;;15.88;9.13;;;20.20;99.90;;;19.47;92.66;102656.41;4988489;28;20023;-75
2021/07/28 06:58:51;;;;;;;15.88;8.60;;;20.40;99.90;;;19.63;91.43;102672.44;4987228;28;20126;-74
2021/07/28 07:01:17;;;;;;;14.45;7.82;;;20.50;99.90;;;19.75;88.59;102662.97;4971445;28;20379;-74
2021/07/28 07:03:43;;;;;;;13.68;7.45;;;20.60;99.90;;;19.75;88.60;104521.78;4971957;28;20081;-74
2021/07/28 07:06:09;;;;;;;15.88;8.00;;;20.50;99.90;;;19.75;88.55;104281.13;4972751;28;20034;-74
2021/07/28 07:08:35;;;;;;;13.63;6.95;;;20.50;99.90;;;19.74;87.50;103616.34;4988234;28;20561;-74
2021/07/28 07:11:01;;;;;;;10.35;7.38;;;20.50;99.90;;;19.64;87.13;104805.41;4970295;28;20042;-74
2021/07/28 07:13:27;;;;;;;13.55;7.43;;;20.50;99.90;;;19.70;100.00;104994.31;4955854;28;20439;-74
2021/07/28 07:15:53;;;;;;;12.10;7.13;;;20.60;99.90;;;19.78;88.83;103898.69;4970187;28;20089;-74
2021/07/28 07:18:19;;;;;;;8.88;6.75;;;20.60;99.90;;;19.83;88.45;103788.91;4968679;28;20228;-75
2021/07/28 07:20:45;;;;;;;10.38;6.82;;;20.70;99.90;;;19.90;87.05;103647.81;4971421;28;20041;-74
2021/07/28 07:23:12;;;;;;;11.75;6.85;;;20.70;99.90;;;19.81;85.38;103499.34;4983698;28;20023;-74
2021/07/28 07:25:38;;;;;;;9.18;6.50;;;20.60;99.90;;;19.84;84.53;103454.63;4987869;28;20518;-75
2021/07/28 07:28:04;;;;;;;11.52;6.65;;;20.60;99.90;;;19.76;84.44;103720.53;4961185;28;20023;-74
2021/07/28 07:30:31;;;;;;;11.68;6.70;;;20.60;99.90;;;19.71;85.50;103501.53;4987209;28;20030;-74
2021/07/28 07:35:41;;;;;;;11.20;6.78;;;20.90;99.90;;;20.21;84.24;103450.34;4970980;28;21074;-74
2021/07/28 07:38:08;;;;;;;9.75;6.15;;;21.20;99.90;;;20.56;84.36;103418.47;4971425;28;20782;-74
2021/07/28 07:40:34;;;;;;;10.10;6.07;;;21.40;99.90;;;20.75;80.53;103463.13;4985570;28;20022;-74
2021/07/28 07:43:01;;;;;;;9.65;5.75;;;21.50;99.90;;;20.82;79.24;106741.69;4972454;28;20042;-74
2021/07/28 07:45:27;;;;;;;9.50;6.30;;;21.50;99.90;;;20.78;77.98;104917.19;4970156;28;20030;-75
2021/07/28 07:47:53;;;;;;;7.43;5.40;;;21.50;99.90;;;20.73;77.82;104411.09;4953315;28;20210;-74
2021/07/28 07:50:19;;;;;;;10.55;4.93;;;21.50;99.90;;;20.66;74.69;104406.88;5008295;28;20407;-75
2021/07/28 07:52:45;;;;;;;6.35;4.55;;;21.40;99.90;;;20.57;75.10;104271.50;4968393;28;20110;-74
2021/07/28 07:55:11;;;;;;;7.47;4.57;;;21.20;99.90;;;20.38;73.77;104123.97;4933909;28;20483;-74
2021/07/28 07:57:37;;;;;;;6.15;4.57;;;21.10;99.90;;;20.11;74.99;103879.69;4950257;28;20050;-74
2021/07/28 08:00:04;;;;;;;9.15;4.25;;;20.90;99.90;;;19.96;75.92;103771.47;4951768;28;20042;-74
2021/07/28 08:02:32;;;;;;;5.35;3.85;;;20.80;99.90;;;19.91;76.39;103645.06;4972294;28;20050;-75
2021/07/28 08:04:58;;;;;;;6.88;3.97;;;20.70;99.90;;;19.74;75.17;103565.56;4963228;28;20182;-74
2021/07/28 08:07:24;;;;;;;7.13;4.05;;;20.60;99.90;;;19.70;76.43;103491.78;4954618;28;20129;-74
2021/07/28 08:09:50;;;;;;;10.70;4.40;;;20.50;99.90;;;19.68;76.89;103458.84;4933291;28;20045;-74
2021/07/28 08:12:16;;;;;;;6.18;4.68;;;20.60;99.90;;;19.81;78.96;103368.34;4932399;28;20035;-74
2021/07/28 08:14:42;;;;;;;7.57;4.75;;;20.70;99.90;;;20.01;77.63;103273.84;4933569;28;20468;-74
2021/07/28 08:17:08;;;;;;;5.78;3.97;;;21.00;99.90;;;20.32;76.44;103267.06;4955863;28;20035;-75
2021/07/28 08:19:34;;;;;;;7.45;3.90;;;21.20;99.90;;;20.43;75.17;103122.91;4954886;28;20038;-75
2021/07/28 08:22:00;;;;;;;9.05;4.22;;;21.30;99.90;;;20.43;74.37;103069.38;4958772;28;20045;-74
2021/07/28 08:24:26;;;;;;;5.65;4.25;;;21.20;99.90;;;20.45;76.23;103067.50;4942641;28;20035;-75
2021/07/28 08:26:52;;;;;;;8.02;4.00;;;21.40;99.90;;;20.65;75.59;103013.84;4954244;28;20074;-74
2021/07/28 08:29:18;;;;;;;7.80;3.88;;;21.50;99.90;;;20.76;73.23;103432.75;4938215;28;20026;-74
2021/07/28 08:31:44;;;;;;;8.35;3.88;;;21.60;99.90;;;20.76;73.20;103280.13;4938708;28;22613;-74
2021/07/28 08:34:10;;;;;;;5.00;3.58;;;21.50;99.90;;;20.62;72.16;103144.28;4987279;28;20126;-74
2021/07/28 08:36:36;;;;;;;5.45;3.42;;;21.40;99.90;;;20.60;72.81;102900.78;4952907;28;20030;-77
2021/07/28 08:39:02;;;;;;;6.80;3.60;;;21.30;99.90;;;20.53;72.20;103247.28;4971231;28;20065;-74
2021/07/28 08:41:29;;;;;;;7.03;3.53;;;21.30;99.90;;;20.50;71.97;103070.81;4952353;28;20070;-75
2021/07/28 08:43:58;;;;;;;6.25;3.50;;;21.30;99.90;;;20.61;74.02;103004.25;4971182;28;20050;-75
2021/07/28 08:46:27;;;;;;;8.45;4.18;;;21.40;99.90;;;20.64;74.05;102872.91;4953725;28;20019;-74
2021/07/28 08:48:55;;;;;;;9.25;4.30;;;21.40;99.90;;;20.67;75.05;102821.03;4985840;28;20039;-74
2021/07/28 08:51:34;;;;;;;7.55;5.00;;;21.30;99.90;;;20.47;76.00;102780.19;4993130;28;20023;-75
2021/07/28 08:54:00;;;;;;;6.55;5.00;;;21.30;99.90;;;20.52;76.43;102769.22;4993268;28;20027;-75
2021/07/28 08:56:26;;;;;;;7.43;4.80;;;21.30;99.90;;;20.59;76.18;102757.22;4991933;28;20038;-75
2021/07/28 08:58:52;;;;;;;7.38;5.03;;;21.50;99.90;;;20.83;75.84;102689.84;4981382;28;20073;-75
2021/07/28 09:01:32;;;;;;;8.30;4.88;;;21.80;99.90;;;21.24;74.68;102738.25;4970591;28;20057;-75
2021/07/28 09:04:13;;;;;;;6.80;5.10;;;22.10;99.90;;;21.51;72.98;102689.31;4961007;28;20117;-75
2021/07/28 09:06:43;;;;;;;8.00;5.05;;;22.40;99.90;;;21.91;71.56;102701.09;4979193;28;20042;-74
2021/07/28 09:09:16;;;;;;;9.63;4.63;;;22.50;99.90;;;21.90;70.30;102677.91;4977382;28;20491;-74
2021/07/28 09:12:15;;;;;;;10.38;4.70;;;22.90;99.90;;;22.53;68.40;102700.69;4937782;28;20107;-75
2021/07/28 09:14:56;;;;;;;6.40;4.45;;;23.40;99.90;;;23.14;69.11;102751.28;4917787;28;20039;-75
2021/07/28 09:17:47;;;;;;;7.93;4.05;;;24.40;99.90;;;24.29;63.00;102713.56;4932227;28;20360;-75
2021/07/28 09:20:25;;;;;;;6.32;3.83;;;24.90;99.90;;;24.43;59.42;104640.81;4954685;28;20042;-74
2021/07/28 09:23:27;;;;;;;7.85;3.65;;;24.90;99.90;;;23.95;58.51;103875.78;4940211;28;20038;-75
2021/07/28 09:26:44;;;;;;;9.73;3.58;;;24.60;99.90;;;24.07;58.30;103571.91;4936339;28;20038;-74
2021/07/28 09:29:39;;;;;;;7.10;3.33;;;24.60;99.90;;;24.06;58.74;103368.31;4937763;28;20043;-75
2021/07/28 09:32:20;;;;;;;5.13;3.58;;;24.60;99.90;;;24.25;58.31;103281.88;4942841;28;20018;-75
2021/07/28 09:34:54;;;;;;;6.78;3.60;;;24.60;99.90;;;23.85;57.14;103198.34;4944661;28;20508;-75
2021/07/28 09:37:59;;;;;;;6.90;3.28;;;24.10;99.90;;;23.83;59.19;103257.63;4948116;28;20042;-75
2021/07/28 09:40:38;;;;;;;7.07;3.17;;;24.50;99.90;;;23.89;57.84;103320.97;4963804;28;20039;-75
2021/07/28 09:43:09;;;;;;;7.05;3.47;;;24.40;99.90;;;24.08;59.58;103413.03;4950457;28;20065;-75
2021/07/28 09:45:53;;;;;;;7.40;3.63;;;24.60;99.90;;;24.20;58.07;103416.78;4912005;28;20175;-75
2021/07/28 09:48:52;;;;;;;4.18;3.05;;;24.90;99.90;;;24.83;60.15;103069.75;4926431;28;20117;-74
2021/07/28 09:51:57;;;;;;;5.07;3.17;;;25.80;99.90;;;25.86;52.02;103055.06;4937264;28;20068;-75
2021/07/28 09:55:07;;;;;;;5.75;3.20;;;26.20;99.90;;;26.13;52.02;103440.06;4970933;28;20038;-75
2021/07/28 09:58:39;;;;;;;5.53;3.20;;;26.70;99.90;;;26.05;51.78;103920.31;4965822;28;20031;-75
2021/07/28 10:01:18;;;;;;;3.60;3.22;;;26.60;99.90;;;26.06;51.29;103679.06;4933804;28;20088;-75
2021/07/28 10:04:29;;;;;;;5.55;3.25;;;26.60;99.90;;;26.31;52.25;103373.94;4920210;28;20050;-75
2021/07/28 10:07:46;;;;;;;5.10;2.95;;;27.00;99.90;;;25.92;49.71;102960.16;4916600;28;20058;-74
2021/07/28 10:10:58;;;;;;;5.43;3.10;;;26.10;99.90;;;25.73;49.99;102792.56;4932001;28;20026;-75
2021/07/28 10:13:57;;;;;;;6.95;3.67;;;26.00;99.90;;;25.54;51.33;102694.19;4915580;28;20274;-75
2021/07/28 10:16:53;;;;;;;5.18;3.00;;;25.90;99.90;;;25.61;49.51;102699.94;4947308;28;20031;-75
2021/07/28 10:20:17;;;;;;;6.63;3.00;;;25.90;99.90;;;25.56;49.29;102657.16;4942687;28;20043;-75
2021/07/28 10:23:40;;;;;;;6.60;3.55;;;26.00;99.90;;;25.50;50.56;102565.09;4920769;28;20056;-73
2021/07/28 10:26:51;;;;;;;4.60;2.97;;;25.70;99.90;;;25.50;52.05;102540.81;4926949;28;20499;-75
2021/07/28 10:30:14;;;;;;;4.70;3.28;;;26.20;99.90;;;25.97;50.03;102579.25;4931267;28;20035;-75